Time;durP1;ratioP1;P1;durP2;ratioP2;P2;SDS_P1;SDS_P2;PMS_P1;PMS_P2;Temp;Humidity;BMP_temperature;BMP_pressure;BME280_temperature;BME280_humidity;BME280_pressure;Samples;Min_cycle;Max_cycle;Signal;HPM_P1;HPM_P2
2021/06/07 00:00:52;;;;;;;57.90;2.53;;;16.10;98.50;;;;;;5012282;28;20558;-67
2021/06/07 00:03:18;;;;;;;57.57;2.40;;;16.10;99.00;;;;;;5012619;28;20542;-67
2021/06/07 00:05:45;;;;;;;57.77;3.07;;;16.10;99.40;;;;;;5012545;28;20567;-67
2021/06/07 00:08:12;;;;;;;57.90;3.10;;;16.00;99.60;;;;;;5011071;28;20556;-67
2021/06/07 00:10:39;;;;;;;57.60;2.67;;;16.00;99.90;;;;;;5012616;28;20541;-67
2021/06/07 00:13:06;;;;;;;57.57;2.90;;;16.10;99.90;;;;;;5012347;28;20481;-67
2021/06/07 00:15:34;;;;;;;58.50;2.70;;;16.10;99.90;;;;;;5011991;28;20448;-67
2021/06/07 00:18:01;;;;;;;57.80;2.67;;;16.10;99.90;;;;;;5011911;28;20493;-67
2021/06/07 00:20:31;;;;;;;57.67;2.53;;;16.10;99.90;;;;;;5012338;28;20457;-67
2021/06/07 00:22:58;;;;;;;57.67;2.57;;;16.00;99.90;;;;;;5012164;28;20948;-67
2021/06/07 00:25:26;;;;;;;58.20;3.10;;;16.10;99.90;;;;;;5012172;28;20548;-67
2021/06/07 00:27:52;;;;;;;57.77;2.67;;;16.00;99.90;;;;;;5011796;28;21078;-67
2021/06/07 00:30:19;;;;;;;57.70;2.93;;;16.10;99.90;;;;;;5011861;28;20906;-67
2021/06/07 00:32:46;;;;;;;57.60;2.70;;;16.10;99.90;;;;;;5012041;28;20929;-67
2021/06/07 00:35:16;;;;;;;57.47;3.00;;;16.10;99.90;;;;;;5011825;28;20514;-67
2021/06/07 00:37:42;;;;;;;57.53;2.50;;;16.10;99.90;;;;;;5011482;28;20490;-67
2021/06/07 00:40:09;;;;;;;57.70;2.60;;;16.00;99.90;;;;;;5010731;28;20453;-67
2021/06/07 00:42:37;;;;;;;57.70;2.60;;;16.00;99.90;;;;;;5011705;28;20463;-67
2021/06/07 00:45:06;;;;;;;57.90;3.13;;;16.00;99.90;;;;;;5012071;28;20455;-67
2021/06/07 00:47:33;;;;;;;57.60;3.03;;;16.10;99.90;;;;;;5011732;28;20521;-67
2021/06/07 00:50:00;;;;;;;57.37;2.50;;;16.00;99.90;;;;;;5011976;28;20525;-67
2021/06/07 00:52:26;;;;;;;57.90;3.10;;;16.00;99.90;;;;;;5012034;28;20506;-67
2021/06/07 00:54:52;;;;;;;57.33;2.50;;;16.10;99.90;;;;;;5011723;28;20456;-67
2021/06/07 00:57:19;;;;;;;57.30;2.50;;;16.20;99.90;;;;;;5011308;28;20876;-67
2021/06/07 00:59:46;;;;;;;57.80;2.50;;;16.00;99.90;;;;;;5011633;28;20468;-67
2021/06/07 01:02:14;;;;;;;58.20;3.40;;;16.00;99.90;;;;;;5011697;28;20514;-67
2021/06/07 01:04:41;;;;;;;58.00;3.00;;;16.00;99.90;;;;;;5011910;28;20860;-67
2021/06/07 01:07:07;;;;;;;57.77;2.80;;;15.90;99.90;;;;;;5011437;28;20453;-67
2021/06/07 01:09:33;;;;;;;57.53;2.50;;;16.00;99.90;;;;;;5010294;28;20448;-67
2021/06/07 01:11:59;;;;;;;57.70;2.60;;;16.00;99.90;;;;;;5011370;28;20452;-67
2021/06/07 01:14:26;;;;;;;57.77;2.80;;;16.00;99.90;;;;;;5011799;28;20451;-67
2021/06/07 01:16:53;;;;;;;57.77;2.70;;;16.00;99.90;;;;;;5011543;28;20825;-67
2021/06/07 01:19:22;;;;;;;57.27;2.60;;;16.00;99.90;;;;;;5011536;28;21002;-67
2021/06/07 01:21:49;;;;;;;57.73;2.80;;;16.00;99.90;;;;;;5011717;28;20923;-67
2021/06/07 01:24:17;;;;;;;59.13;4.10;;;16.00;99.90;;;;;;5011499;28;20622;-67
2021/06/07 01:26:43;;;;;;;57.97;3.00;;;16.00;99.90;;;;;;5011628;28;20775;-67
2021/06/07 01:29:10;;;;;;;57.57;2.43;;;16.00;99.90;;;;;;5011278;28;20465;-67
2021/06/07 01:31:36;;;;;;;57.70;2.90;;;16.00;99.90;;;;;;5014284;28;20543;-67
2021/06/07 01:34:02;;;;;;;57.37;2.83;;;16.00;99.90;;;;;;5015307;28;20826;-67
2021/06/07 01:36:29;;;;;;;58.10;2.73;;;15.90;99.90;;;;;;5014907;28;20454;-67
2021/06/07 01:38:55;;;;;;;57.70;2.50;;;16.00;99.90;;;;;;5014797;28;20595;-67
2021/06/07 01:41:23;;;;;;;57.10;2.47;;;15.90;99.50;;;;;;5013766;28;20901;-67
2021/06/07 01:43:49;;;;;;;57.17;2.80;;;16.00;99.40;;;;;;5015027;28;20479;-67
2021/06/07 01:46:16;;;;;;;57.47;2.40;;;15.90;99.30;;;;;;5014925;28;20447;-67
2021/06/07 01:48:43;;;;;;;57.27;2.40;;;15.90;99.40;;;;;;5015051;28;20877;-67
2021/06/07 01:51:10;;;;;;;57.70;2.57;;;15.90;99.40;;;;;;5014829;28;20534;-67
2021/06/07 01:53:37;;;;;;;58.20;2.70;;;15.90;99.50;;;;;;5014647;28;20533;-67
2021/06/07 01:56:06;;;;;;;58.47;2.87;;;15.90;99.50;;;;;;5014639;28;20620;-67
2021/06/07 01:58:34;;;;;;;57.87;2.47;;;15.90;99.60;;;;;;5014511;28;20914;-67
2021/06/07 02:01:05;;;;;;;57.73;2.90;;;15.90;99.50;;;;;;5014799;28;20534;-67
2021/06/07 02:03:32;;;;;;;57.80;2.40;;;15.90;99.60;;;;;;5014771;28;20472;-67
2021/06/07 02:06:01;;;;;;;57.80;2.40;;;15.90;99.60;;;;;;5014357;28;20448;-67
2021/06/07 02:08:30;;;;;;;57.40;2.40;;;15.90;99.60;;;;;;5014711;28;20547;-67
2021/06/07 02:10:59;;;;;;;57.90;2.67;;;15.90;99.80;;;;;;5014341;28;20546;-67
2021/06/07 02:13:26;;;;;;;57.60;2.40;;;15.90;99.90;;;;;;4995955;28;20472;-67
2021/06/07 02:15:56;;;;;;;57.17;2.30;;;15.90;99.90;;;;;;5014220;28;20948;-67
2021/06/07 02:18:22;;;;;;;58.00;3.40;;;15.90;99.90;;;;;;5014178;28;20518;-67
2021/06/07 02:20:49;;;;;;;57.43;2.47;;;15.90;99.90;;;;;;5014388;28;20455;-67
2021/06/07 02:23:16;;;;;;;57.80;2.70;;;15.90;99.90;;;;;;5014664;28;20542;-67
2021/06/07 02:25:42;;;;;;;57.20;2.47;;;15.90;99.90;;;;;;5014178;28;20464;-67
2021/06/07 02:28:13;;;;;;;57.60;2.50;;;15.90;99.90;;;;;;5013959;28;20555;-67
2021/06/07 02:30:40;;;;;;;57.70;2.33;;;15.90;99.90;;;;;;5014158;28;20455;-67
2021/06/07 02:33:08;;;;;;;57.60;2.50;;;15.90;99.90;;;;;;5013931;28;20879;-67
2021/06/07 02:35:35;;;;;;;57.67;2.70;;;15.90;99.90;;;;;;5013841;28;20543;-67
2021/06/07 02:38:01;;;;;;;58.37;3.47;;;15.90;99.90;;;;;;5013792;28;20542;-67
2021/06/07 02:40:30;;;;;;;57.50;2.40;;;15.90;99.90;;;;;;5014316;28;20601;-67
2021/06/07 02:42:58;;;;;;;57.90;2.80;;;15.90;99.90;;;;;;5012425;28;20548;-67
2021/06/07 02:45:27;;;;;;;58.17;3.07;;;15.90;99.90;;;;;;5013831;28;20541;-67
2021/06/07 02:47:57;;;;;;;58.90;3.20;;;15.90;99.90;;;;;;5013628;28;20571;-67
2021/06/07 02:50:27;;;;;;;57.37;2.50;;;15.90;99.90;;;;;;5014231;28;20537;-67
2021/06/07 02:52:54;;;;;;;57.37;2.37;;;15.80;99.90;;;;;;5013814;28;20453;-67
2021/06/07 02:55:22;;;;;;;58.10;3.43;;;15.80;99.90;;;;;;5013591;28;20543;-67
2021/06/07 02:57:51;;;;;;;57.97;3.00;;;15.90;99.90;;;;;;5013162;28;20578;-67
2021/06/07 03:00:20;;;;;;;58.07;3.40;;;15.80;99.90;;;;;;5013235;28;20549;-67
2021/06/07 03:02:46;;;;;;;57.50;2.67;;;15.80;99.90;;;;;;5013728;28;20940;-67
2021/06/07 03:05:14;;;;;;;57.60;2.43;;;15.80;99.90;;;;;;5013596;28;20451;-68
2021/06/07 03:07:42;;;;;;;57.53;2.90;;;15.80;99.90;;;;;;5013410;28;20546;-67
2021/06/07 03:10:09;;;;;;;58.27;3.20;;;15.80;99.90;;;;;;5013348;28;20447;-66
2021/06/07 03:12:36;;;;;;;57.67;2.60;;;15.80;99.90;;;;;;5013269;28;20547;-66
2021/06/07 03:15:03;;;;;;;57.47;2.50;;;15.80;99.90;;;;;;5012092;28;20883;-65
2021/06/07 03:17:30;;;;;;;60.10;2.90;;;15.80;99.90;;;;;;4996364;28;20469;-66
2021/06/07 03:19:56;;;;;;;58.40;3.80;;;15.80;99.90;;;;;;4993611;28;20484;-68
2021/06/07 03:22:22;;;;;;;57.60;2.47;;;15.80;99.90;;;;;;4993593;28;20472;-66
2021/06/07 03:24:51;;;;;;;57.43;2.60;;;15.80;99.90;;;;;;4993496;28;20484;-66
2021/06/07 03:27:18;;;;;;;57.53;2.40;;;15.90;99.90;;;;;;4993064;28;20457;-66
2021/06/07 03:29:45;;;;;;;57.73;2.67;;;15.80;99.80;;;;;;4993603;28;20448;-66
2021/06/07 03:32:12;;;;;;;57.80;2.87;;;15.80;99.80;;;;;;4993369;28;20549;-66
2021/06/07 03:34:38;;;;;;;57.77;2.97;;;15.80;99.60;;;;;;4993490;28;20540;-65
2021/06/07 03:37:05;;;;;;;57.67;2.97;;;15.90;99.90;;;;;;4992946;28;20546;-66
2021/06/07 03:39:31;;;;;;;57.97;2.73;;;15.80;99.60;;;;;;4993046;28;20515;-65
2021/06/07 03:41:59;;;;;;;57.70;3.10;;;15.80;99.30;;;;;;4993018;28;20535;-66
2021/06/07 03:44:26;;;;;;;57.80;3.03;;;15.80;99.00;;;;;;4992804;28;20548;-66
2021/06/07 03:46:52;;;;;;;57.60;2.80;;;15.80;99.10;;;;;;4995005;28;20542;-66
2021/06/07 03:49:18;;;;;;;57.57;2.70;;;15.70;99.00;;;;;;5012779;28;20467;-66
2021/06/07 03:51:45;;;;;;;57.70;2.60;;;15.70;99.00;;;;;;5012826;28;20479;-66
2021/06/07 03:54:12;;;;;;;57.77;2.80;;;15.80;99.00;;;;;;5012160;28;20444;-66
2021/06/07 03:56:38;;;;;;;57.50;2.50;;;15.70;99.00;;;;;;5012124;28;20458;-66
2021/06/07 03:59:06;;;;;;;57.67;2.47;;;15.70;99.00;;;;;;5012464;28;20505;-66
2021/06/07 04:01:32;;;;;;;57.80;3.10;;;15.70;99.30;;;;;;5012678;28;20569;-66
2021/06/07 04:03:58;;;;;;;57.60;2.47;;;15.70;99.40;;;;;;5012377;28;20963;-66
2021/06/07 04:06:25;;;;;;;57.67;2.60;;;15.70;99.30;;;;;;5012205;28;20458;-66
2021/06/07 04:08:56;;;;;;;57.60;2.40;;;15.70;99.40;;;;;;5012168;28;20483;-66
2021/06/07 04:11:22;;;;;;;57.17;2.77;;;15.70;99.30;;;;;;5012595;28;20475;-66
2021/06/07 04:13:48;;;;;;;57.27;2.60;;;15.70;99.60;;;;;;5012273;28;20539;-66
2021/06/07 04:16:16;;;;;;;57.60;2.53;;;15.70;99.70;;;;;;5010744;28;20477;-66
2021/06/07 04:18:43;;;;;;;57.60;2.93;;;15.70;99.80;;;;;;5002413;28;20587;-66
2021/06/07 04:21:09;;;;;;;57.47;2.33;;;15.70;99.90;;;;;;4992627;28;20538;-66
2021/06/07 04:23:35;;;;;;;57.80;3.30;;;15.70;99.90;;;;;;4992380;28;20564;-66
2021/06/07 04:26:02;;;;;;;57.60;3.40;;;15.70;99.90;;;;;;4992583;28;20547;-66
2021/06/07 04:28:28;;;;;;;56.97;2.60;;;15.70;99.90;;;;;;4992400;28;20470;-66
2021/06/07 04:30:55;;;;;;;58.30;3.23;;;15.80;99.90;;;;;;4992556;28;20453;-66
2021/06/07 04:33:23;;;;;;;57.60;2.40;;;15.70;99.90;;;;;;4992540;28;20499;-66
2021/06/07 04:35:49;;;;;;;57.60;2.50;;;15.80;99.90;;;;;;4992562;28;20642;-66
2021/06/07 04:38:15;;;;;;;57.50;2.40;;;15.80;99.90;;;;;;4991710;28;20488;-66
2021/06/07 04:40:43;;;;;;;59.27;2.80;;;15.80;99.90;;;;;;4992532;28;20543;-66
2021/06/07 04:43:13;;;;;;;59.90;3.07;;;15.80;99.70;;;;;;4992617;28;20470;-66
2021/06/07 04:45:42;;;;;;;57.20;2.60;;;15.80;99.30;;;;;;4992512;28;20881;-66
2021/06/07 04:48:10;;;;;;;57.70;2.60;;;15.80;99.20;;;;;;5004294;28;20546;-66
2021/06/07 04:50:39;;;;;;;63.63;3.53;;;15.80;99.40;;;;;;5011485;28;20463;-67
2021/06/07 04:53:07;;;;;;;57.50;2.83;;;15.90;99.40;;;;;;5012017;28;20513;-66
2021/06/07 04:55:35;;;;;;;57.60;2.60;;;15.90;99.40;;;;;;5012017;28;20466;-66
2021/06/07 04:58:03;;;;;;;57.83;3.00;;;15.90;99.20;;;;;;5011752;28;20488;-66
2021/06/07 05:00:29;;;;;;;57.80;2.63;;;16.00;99.10;;;;;;5011709;28;20828;-66
2021/06/07 05:02:56;;;;;;;57.70;2.40;;;16.00;98.60;;;;;;5011827;28;20535;-66
2021/06/07 05:05:23;;;;;;;57.27;2.30;;;16.00;98.40;;;;;;5012492;28;20607;-66
2021/06/07 05:07:51;;;;;;;57.37;2.40;;;16.00;98.70;;;;;;5015501;28;20507;-66
2021/06/07 05:10:18;;;;;;;57.33;2.70;;;16.00;98.60;;;;;;5015766;28;20464;-67
2021/06/07 05:12:44;;;;;;;57.57;2.30;;;16.00;98.70;;;;;;5016096;28;20501;-66
2021/06/07 05:15:13;;;;;;;57.60;2.43;;;16.00;98.70;;;;;;5015794;28;20448;-66
2021/06/07 05:17:39;;;;;;;57.60;2.50;;;16.00;98.30;;;;;;5014930;28;20999;-66
2021/06/07 05:20:09;;;;;;;57.60;2.30;;;16.00;98.10;;;;;;5012984;28;21013;-66
2021/06/07 05:22:37;;;;;;;57.57;2.60;;;16.00;98.20;;;;;;4996244;28;20479;-66
2021/06/07 05:25:06;;;;;;;57.50;2.80;;;16.00;98.10;;;;;;4995918;28;20845;-66
2021/06/07 05:27:33;;;;;;;57.70;2.50;;;16.00;98.40;;;;;;4995454;28;20472;-66
2021/06/07 05:30:00;;;;;;;57.50;2.43;;;16.00;98.40;;;;;;4995648;28;20470;-66
2021/06/07 05:32:27;;;;;;;57.60;2.50;;;16.00;98.30;;;;;;4995511;28;20514;-66
2021/06/07 05:34:53;;;;;;;57.13;2.40;;;16.00;98.20;;;;;;4995561;28;20452;-66
2021/06/07 05:37:20;;;;;;;57.90;2.87;;;16.20;99.90;;;;;;4995204;28;20514;-66
2021/06/07 05:39:46;;;;;;;57.40;2.43;;;16.10;98.60;;;;;;4995297;28;20578;-66
2021/06/07 05:42:14;;;;;;;57.27;2.40;;;16.10;99.00;;;;;;4995394;28;20961;-66
2021/06/07 05:44:40;;;;;;;57.80;2.80;;;16.20;99.50;;;;;;4995778;28;20539;-66
2021/06/07 05:47:07;;;;;;;57.33;2.50;;;16.20;99.50;;;;;;4994950;28;20520;-66
2021/06/07 05:49:37;;;;;;;58.77;2.90;;;16.20;99.50;;;;;;4994722;28;20522;-66
2021/06/07 05:52:05;;;;;;;57.43;2.30;;;16.20;99.30;;;;;;5004571;28;20462;-66
2021/06/07 05:54:31;;;;;;;57.70;2.50;;;16.20;99.20;;;;;;5014861;28;20598;-66
2021/06/07 05:56:58;;;;;;;57.13;2.60;;;16.20;99.60;;;;;;5014524;28;20484;-66
2021/06/07 05:59:26;;;;;;;57.47;2.33;;;16.20;99.40;;;;;;5014284;28;20495;-66
2021/06/07 06:01:52;;;;;;;57.43;2.53;;;16.20;99.20;;;;;;5014752;28;20945;-66
2021/06/07 06:04:18;;;;;;;57.30;2.30;;;16.20;98.90;;;;;;5014969;28;20870;-66
2021/06/07 06:06:45;;;;;;;57.20;2.57;;;16.20;98.90;;;;;;5014548;28;20546;-66
2021/06/07 06:09:11;;;;;;;56.87;2.30;;;16.30;98.90;;;;;;5014121;28;20464;-66
2021/06/07 06:11:39;;;;;;;57.60;2.90;;;16.30;99.00;;;;;;5014574;28;20544;-65
2021/06/07 06:14:05;;;;;;;57.60;2.63;;;16.40;98.80;;;;;;5014388;28;20552;-65
2021/06/07 06:16:33;;;;;;;57.57;2.70;;;16.40;98.40;;;;;;5014057;28;20456;-65
2021/06/07 06:18:59;;;;;;;57.07;2.40;;;16.40;98.20;;;;;;5014088;28;21000;-65
2021/06/07 06:21:27;;;;;;;57.67;2.40;;;16.40;98.00;;;;;;5014498;28;20539;-66
2021/06/07 06:23:54;;;;;;;57.60;2.40;;;16.40;98.10;;;;;;5014875;28;20452;-66
2021/06/07 06:26:21;;;;;;;58.30;2.90;;;16.40;98.10;;;;;;5014063;28;20882;-66
2021/06/07 06:28:48;;;;;;;57.80;2.90;;;16.30;97.70;;;;;;5014527;28;20475;-66
2021/06/07 06:31:15;;;;;;;57.20;2.60;;;16.30;97.70;;;;;;5014364;28;20459;-67
2021/06/07 06:33:43;;;;;;;57.43;2.30;;;16.30;97.30;;;;;;5014306;28;20959;-66
2021/06/07 06:36:10;;;;;;;57.60;3.00;;;16.30;97.50;;;;;;5013821;28;20971;-66
2021/06/07 06:38:37;;;;;;;57.17;2.47;;;16.30;97.30;;;;;;5013950;28;20514;-67
2021/06/07 06:41:03;;;;;;;57.60;3.00;;;16.30;97.30;;;;;;5013940;28;20939;-66
2021/06/07 06:43:30;;;;;;;57.57;3.00;;;16.30;97.20;;;;;;5014156;28;20539;-66
2021/06/07 06:45:56;;;;;;;57.60;2.57;;;16.30;97.50;;;;;;5013897;28;20455;-66
2021/06/07 06:48:22;;;;;;;57.40;2.57;;;16.30;97.40;;;;;;5014106;28;20501;-66
2021/06/07 06:50:50;;;;;;;59.70;3.77;;;16.30;97.60;;;;;;5013460;28;21001;-67
2021/06/07 06:53:19;;;;;;;57.43;2.53;;;16.40;97.70;;;;;;5012427;28;20448;-67
2021/06/07 06:55:47;;;;;;;57.67;2.80;;;16.40;97.80;;;;;;5012370;28;20780;-67
2021/06/07 06:58:14;;;;;;;58.73;3.53;;;16.40;97.70;;;;;;5009662;28;20530;-67
2021/06/07 07:00:41;;;;;;;57.50;2.30;;;16.40;97.70;;;;;;5011822;28;21014;-66
2021/06/07 07:03:09;;;;;;;57.27;3.13;;;16.40;97.70;;;;;;5011943;28;20456;-67
2021/06/07 07:05:36;;;;;;;57.27;2.50;;;16.40;97.60;;;;;;5011712;28;20486;-67
2021/06/07 07:08:04;;;;;;;57.60;2.50;;;16.40;97.60;;;;;;5012873;28;20534;-67
2021/06/07 07:10:31;;;;;;;57.80;3.10;;;16.40;97.40;;;;;;5013276;28;20455;-66
2021/06/07 07:12:57;;;;;;;57.17;2.43;;;16.40;97.10;;;;;;5013743;28;20535;-66
2021/06/07 07:15:24;;;;;;;58.10;3.30;;;16.50;97.30;;;;;;5013407;28;20958;-67
2021/06/07 07:17:50;;;;;;;57.37;2.80;;;16.60;97.60;;;;;;5013519;28;20468;-67
2021/06/07 07:20:16;;;;;;;57.37;2.90;;;16.70;97.80;;;;;;5013026;28;20595;-67
2021/06/07 07:22:43;;;;;;;58.30;2.63;;;16.70;98.00;;;;;;5013072;28;20862;-66
2021/06/07 07:25:12;;;;;;;57.70;3.03;;;16.80;98.10;;;;;;5013706;28;20457;-67
2021/06/07 07:27:39;;;;;;;58.10;3.33;;;16.90;97.80;;;;;;5012404;28;20554;-66
2021/06/07 07:30:09;;;;;;;57.57;2.97;;;16.90;97.40;;;;;;5010761;28;20535;-67
2021/06/07 07:32:35;;;;;;;57.40;2.70;;;16.90;97.30;;;;;;5013195;28;20472;-66
2021/06/07 07:35:02;;;;;;;57.80;3.03;;;16.80;97.10;;;;;;5012923;28;20449;-66
2021/06/07 07:37:28;;;;;;;57.70;2.70;;;16.90;96.90;;;;;;5012508;28;20480;-66
2021/06/07 07:39:55;;;;;;;57.27;2.33;;;16.90;96.30;;;;;;5012771;28;20587;-67
2021/06/07 07:42:23;;;;;;;57.70;2.60;;;16.90;95.80;;;;;;5012998;28;20535;-67
2021/06/07 07:44:49;;;;;;;59.07;3.37;;;17.00;95.10;;;;;;5012741;28;21052;-66
2021/06/07 07:47:17;;;;;;;57.33;2.70;;;17.00;94.30;;;;;;5012467;28;20492;-66
2021/06/07 07:49:43;;;;;;;57.20;2.30;;;16.90;94.50;;;;;;5012524;28;20838;-66
2021/06/07 07:52:10;;;;;;;57.17;2.40;;;17.00;94.10;;;;;;5012585;28;20984;-66
2021/06/07 07:54:37;;;;;;;57.43;2.50;;;17.00;93.70;;;;;;5012635;28;20547;-66
2021/06/07 07:57:04;;;;;;;57.27;2.60;;;17.00;93.70;;;;;;5012520;28;20485;-67
2021/06/07 07:59:33;;;;;;;57.03;2.87;;;17.00;93.70;;;;;;5010033;28;20511;-66
2021/06/07 08:02:00;;;;;;;57.50;2.40;;;17.00;93.70;;;;;;5007406;28;20540;-67
2021/06/07 08:04:26;;;;;;;58.33;3.30;;;17.00;93.50;;;;;;4992659;28;20450;-66
2021/06/07 08:06:53;;;;;;;57.57;2.50;;;17.00;93.70;;;;;;4992744;28;20454;-66
2021/06/07 08:09:19;;;;;;;57.70;2.80;;;17.10;93.40;;;;;;4992849;28;20556;-67
2021/06/07 08:11:46;;;;;;;57.57;2.97;;;17.10;93.00;;;;;;4993147;28;20984;-67
2021/06/07 08:14:12;;;;;;;57.07;2.27;;;17.10;92.90;;;;;;4992840;28;20488;-66
2021/06/07 08:16:40;;;;;;;57.50;2.40;;;17.10;92.60;;;;;;4992587;28;20541;-66
2021/06/07 08:19:06;;;;;;;57.37;2.50;;;17.10;92.70;;;;;;4992196;28;20975;-67
2021/06/07 08:21:32;;;;;;;57.57;2.80;;;17.20;92.50;;;;;;4992720;28;20450;-66
2021/06/07 08:23:59;;;;;;;57.53;2.63;;;17.20;92.90;;;;;;4993046;28;20547;-66
2021/06/07 08:26:25;;;;;;;57.90;2.70;;;17.30;93.30;;;;;;4992448;28;20454;-66
2021/06/07 08:28:51;;;;;;;57.50;2.67;;;17.30;93.50;;;;;;4992828;28;20847;-66
2021/06/07 08:31:18;;;;;;;56.80;2.43;;;17.30;93.10;;;;;;4996049;28;20460;-67
2021/06/07 08:33:46;;;;;;;57.43;2.20;;;17.30;92.70;;;;;;5011951;28;20485;-67
2021/06/07 08:36:12;;;;;;;58.27;2.67;;;17.40;92.60;;;;;;5012105;28;20457;-67
2021/06/07 08:38:40;;;;;;;57.70;4.03;;;17.40;92.50;;;;;;5012010;28;20555;-67
2021/06/07 08:41:07;;;;;;;58.27;3.07;;;17.40;92.20;;;;;;5011984;28;20453;-66
2021/06/07 08:43:34;;;;;;;57.30;2.60;;;17.50;92.30;;;;;;5012172;28;20485;-67
2021/06/07 08:46:00;;;;;;;57.57;3.00;;;17.50;92.20;;;;;;5011838;28;20499;-67
2021/06/07 08:48:27;;;;;;;57.57;2.70;;;17.60;92.00;;;;;;5012007;28;20561;-68
2021/06/07 08:50:56;;;;;;;57.80;2.90;;;17.70;91.80;;;;;;5011981;28;20450;-67
2021/06/07 08:53:22;;;;;;;57.87;3.00;;;17.90;91.60;;;;;;5012148;28;20912;-68
2021/06/07 08:55:49;;;;;;;56.97;2.40;;;18.00;90.10;;;;;;5011938;28;20975;-68
2021/06/07 08:58:15;;;;;;;57.67;2.50;;;18.00;84.40;;;;;;5011505;28;20512;-68
2021/06/07 09:00:43;;;;;;;57.37;2.60;;;18.00;82.70;;;;;;5011496;28;20462;-67
2021/06/07 09:03:13;;;;;;;58.00;2.50;;;18.00;81.40;;;;;;5009622;28;20461;-68
2021/06/07 09:05:40;;;;;;;57.67;2.60;;;18.00;80.10;;;;;;5011896;28;20569;-66
2021/06/07 09:08:10;;;;;;;58.00;2.73;;;17.90;77.50;;;;;;5011631;28;20497;-67
2021/06/07 09:10:38;;;;;;;57.40;2.33;;;17.90;75.80;;;;;;5011855;28;20455;-67
2021/06/07 09:13:08;;;;;;;57.70;2.60;;;17.90;75.30;;;;;;5011559;28;21060;-66
2021/06/07 09:15:37;;;;;;;57.67;2.67;;;17.90;74.70;;;;;;5012013;28;20897;-66
2021/06/07 09:18:05;;;;;;;58.00;3.00;;;17.90;74.60;;;;;;5010856;28;20493;-67
2021/06/07 09:20:32;;;;;;;57.50;2.57;;;17.90;74.20;;;;;;5011112;28;20485;-65
2021/06/07 09:23:01;;;;;;;57.90;2.83;;;17.90;75.50;;;;;;5011858;28;20527;-66
2021/06/07 09:25:32;;;;;;;58.60;2.97;;;18.00;76.50;;;;;;5010081;28;20832;-66
2021/06/07 09:28:10;;;;;;;57.90;2.60;;;18.10;77.10;;;;;;5011161;28;20469;-66
2021/06/07 09:30:39;;;;;;;57.53;2.50;;;18.20;75.50;;;;;;5011443;28;20480;-65
2021/06/07 09:33:25;;;;;;;57.90;2.60;;;18.20;74.20;;;;;;5011560;28;20452;-66
2021/06/07 09:36:12;;;;;;;57.80;2.77;;;18.30;75.20;;;;;;5010273;28;20532;-66
2021/06/07 09:39:08;;;;;;;57.50;2.90;;;18.30;73.70;;;;;;5011496;28;20500;-66
2021/06/07 09:41:56;;;;;;;57.47;2.40;;;18.30;70.30;;;;;;5011465;28;20927;-65
2021/06/07 09:44:44;;;;;;;57.67;2.60;;;18.40;69.50;;;;;;5011559;28;20922;-65
2021/06/07 09:47:13;;;;;;;57.60;2.70;;;18.40;68.40;;;;;;5011331;28;20488;-66
2021/06/07 09:49:41;;;;;;;58.70;4.33;;;18.40;67.00;;;;;;5011313;28;20464;-66
2021/06/07 09:52:10;;;;;;;57.70;2.63;;;18.40;63.60;;;;;;5013265;28;20491;-66
2021/06/07 09:54:37;;;;;;;57.67;2.50;;;18.40;55.70;;;;;;5014822;28;20537;-66
2021/06/07 09:57:05;;;;;;;57.57;3.67;;;18.40;58.40;;;;;;5014712;28;20527;-66
2021/06/07 09:59:34;;;;;;;57.77;3.23;;;18.40;61.20;;;;;;5014833;28;20528;-66
2021/06/07 10:02:02;;;;;;;57.77;2.77;;;18.50;62.60;;;;;;5014396;28;20457;-67
2021/06/07 10:04:49;;;;;;;57.80;2.77;;;18.60;62.90;;;;;;5014664;28;20870;-66
2021/06/07 10:07:15;;;;;;;57.47;2.57;;;18.70;63.60;;;;;;5013048;28;20492;-65
2021/06/07 10:10:13;;;;;;;58.47;3.00;;;18.80;61.40;;;;;;5014881;28;20528;-66
2021/06/07 10:12:42;;;;;;;57.90;2.93;;;18.70;49.20;;;;;;5014494;28;20937;-66
2021/06/07 10:15:10;;;;;;;57.83;2.80;;;18.70;50.10;;;;;;5014512;28;20858;-66
2021/06/07 10:17:37;;;;;;;58.30;3.30;;;18.70;43.60;;;;;;5014014;28;20549;-66
2021/06/07 10:22:50;;;;;;;57.80;3.53;;;18.80;46.50;;;;;;5014611;28;20468;-66
2021/06/07 10:25:16;;;;;;;58.13;2.73;;;18.90;42.50;;;;;;5014596;28;20482;-66
2021/06/07 10:27:44;;;;;;;57.67;2.50;;;18.90;42.60;;;;;;5013921;28;21005;-66
2021/06/07 10:30:17;;;;;;;57.67;2.60;;;19.00;36.00;;;;;;5013981;28;20523;-66
2021/06/07 10:32:44;;;;;;;57.63;2.87;;;19.00;38.20;;;;;;5014467;28;20886;-66
2021/06/07 10:35:12;;;;;;;58.37;4.30;;;19.10;39.30;;;;;;5014296;28;20495;-67
2021/06/07 10:37:57;;;;;;;58.40;3.10;;;19.20;42.60;;;;;;4999529;28;20506;-66
2021/06/07 10:40:26;;;;;;;57.47;3.00;;;19.40;41.00;;;;;;5012482;28;20489;-66
2021/06/07 10:42:59;;;;;;;58.37;3.10;;;19.50;39.00;;;;;;5013741;28;20457;-66
2021/06/07 10:45:28;;;;;;;61.70;3.43;;;19.60;31.00;;;;;;5014081;28;20538;-66
2021/06/07 10:47:54;;;;;;;58.40;3.27;;;19.60;25.10;;;;;;5013685;28;20848;-66
2021/06/07 10:50:23;;;;;;;57.70;2.90;;;19.60;13.50;;;;;;5013880;28;20450;-66
2021/06/07 10:52:53;;;;;;;57.97;2.93;;;19.50;9.00;;;;;;5013770;28;20535;-66
2021/06/07 10:55:24;;;;;;;58.20;2.83;;;19.50;5.60;;;;;;5013622;28;20840;-66
2021/06/07 10:57:52;;;;;;;58.07;3.03;;;19.40;6.80;;;;;;5013633;28;20474;-66
2021/06/07 11:00:25;;;;;;;60.47;3.90;;;19.50;6.40;;;;;;5013361;28;20494;-66
2021/06/07 11:02:53;;;;;;;58.00;2.50;;;19.50;6.60;;;;;;5012589;28;20457;-66
2021/06/07 11:05:21;;;;;;;60.30;3.60;;;19.60;1.00;;;;;;5013546;28;20543;-66
2021/06/07 11:08:01;;;;;;;57.87;3.13;;;19.70;1.00;;;;;;5011444;28;20475;-66
2021/06/07 11:10:30;;;;;;;59.03;4.23;;;19.70;1.00;;;;;;5013427;28;20814;-66
2021/06/07 11:12:58;;;;;;;58.97;4.07;;;19.70;1.00;;;;;;5013480;28;20520;-66
2021/06/07 11:15:28;;;;;;;59.23;3.53;;;19.80;1.00;;;;;;5013687;28;20457;-66
2021/06/07 11:18:21;;;;;;;58.20;2.80;;;19.90;1.00;;;;;;5013048;28;20610;-66
2021/06/07 11:20:50;;;;;;;59.40;3.23;;;19.90;1.00;;;;;;5013315;28;20518;-67
2021/06/07 11:23:18;;;;;;;59.00;3.73;;;19.90;1.00;;;;;;5013269;28;20482;-66
2021/06/07 11:25:51;;;;;;;57.97;3.07;;;19.90;1.00;;;;;;5012904;28;20452;-67
2021/06/07 11:28:37;;;;;;;58.70;3.40;;;19.90;1.00;;;;;;5012991;28;20581;-67
2021/06/07 11:31:06;;;;;;;59.40;3.23;;;19.80;1.00;;;;;;5013289;28;20486;-67
2021/06/07 11:33:51;;;;;;;57.80;2.90;;;19.70;1.00;;;;;;5005109;28;20459;-67
2021/06/07 11:36:42;;;;;;;60.00;5.13;;;19.50;1.00;;;;;;4993129;28;20745;-67
2021/06/07 11:39:10;;;;;;;58.70;3.80;;;19.50;1.00;;;;;;4993051;28;20587;-68
2021/06/07 11:41:48;;;;;;;57.97;2.80;;;19.40;1.00;;;;;;4993368;28;20531;-68
2021/06/07 11:44:16;;;;;;;58.93;3.37;;;19.30;1.00;;;;;;4993560;28;20458;-69
2021/06/07 11:46:58;;;;;;;58.00;3.63;;;19.30;1.00;;;;;;4993100;28;20543;-69
2021/06/07 11:49:25;;;;;;;57.60;2.70;;;19.30;2.10;;;;;;4993104;28;20991;-69
2021/06/07 11:52:06;;;;;;;60.10;4.60;;;19.30;4.00;;;;;;4993339;28;20589;-69
2021/06/07 11:54:52;;;;;;;59.33;3.03;;;19.30;11.70;;;;;;4993298;28;20485;-69
2021/06/07 11:57:21;;;;;;;58.47;3.40;;;19.30;12.60;;;;;;4993155;28;20591;-68
2021/06/07 11:59:58;;;;;;;58.90;4.13;;;19.30;11.70;;;;;;4992695;28;20549;-69
2021/06/07 12:02:27;;;;;;;58.30;3.33;;;19.30;11.70;;;;;;4993296;28;20538;-70
2021/06/07 12:04:54;;;;;;;57.70;2.60;;;19.30;13.90;;;;;;4991742;28;20616;-70
2021/06/07 12:07:21;;;;;;;57.47;2.40;;;19.20;15.60;;;;;;4992679;28;20620;-70
2021/06/07 12:09:50;;;;;;;58.03;3.90;;;19.30;21.90;;;;;;4992987;28;20455;-71
2021/06/07 12:12:17;;;;;;;59.10;4.07;;;19.20;21.00;;;;;;4992847;28;20537;-71
2021/06/07 12:14:46;;;;;;;58.80;3.80;;;19.20;23.20;;;;;;4992927;28;20455;-71
2021/06/07 12:17:19;;;;;;;59.07;4.73;;;19.20;25.60;;;;;;4992968;28;21130;-71
2021/06/07 12:19:51;;;;;;;58.27;2.80;;;19.10;25.30;;;;;;4992822;28;20495;-71
2021/06/07 12:22:29;;;;;;;57.80;2.50;;;19.00;26.80;;;;;;4993063;28;20440;-72
2021/06/07 12:24:58;;;;;;;58.80;3.90;;;19.00;38.00;;;;;;4992832;28;20450;-71
2021/06/07 12:30:18;;;;;;;57.90;3.13;;;19.10;54.80;;;;;;4992649;28;20422;-71
2021/06/07 12:32:48;;;;;;;58.30;3.43;;;19.20;64.40;;;;;;4992559;28;20487;-71
2021/06/07 12:35:17;;;;;;;58.57;3.23;;;19.30;71.00;;;;;;4992376;28;20454;-71
2021/06/07 12:37:46;;;;;;;57.57;2.70;;;19.60;77.00;;;;;;4991821;28;20482;-71
2021/06/07 12:40:31;;;;;;;58.40;3.53;;;19.90;80.50;;;;;;4992433;28;20498;-70
2021/06/07 12:43:01;;;;;;;58.90;3.30;;;20.20;82.50;;;;;;4992335;28;20579;-70
2021/06/07 12:45:32;;;;;;;58.87;3.97;;;20.30;77.90;;;;;;4992767;28;20551;-70
2021/06/07 12:48:13;;;;;;;58.80;3.80;;;20.40;75.10;;;;;;4992088;28;20563;-70
2021/06/07 12:50:42;;;;;;;67.80;3.60;;;20.50;72.40;;;;;;4992304;28;20476;-70